Time;durP1;ratioP1;P1;durP2;ratioP2;P2;SDS_P1;SDS_P2;PMS_P1;PMS_P2;Temp;Humidity;BMP_temperature;BMP_pressure;BME280_temperature;BME280_humidity;BME280_pressure;Samples;Min_cycle;Max_cycle;Signal;HPM_P1;HPM_P2
2022/12/30 15:03:21;;;;;;;7.45;1.58;;;8.60;87.50;;;;;;5069822;28;20948;-61
2022/12/30 15:06:08;;;;;;;5.75;1.80;;;8.70;87.40;;;;;;5069898;28;20025;-62
2022/12/30 15:08:36;;;;;;;3.63;1.35;;;8.70;87.60;;;;;;5069077;28;20036;-63
2022/12/30 15:11:08;;;;;;;6.20;1.30;;;8.80;87.40;;;;;;5069650;28;20123;-62
2022/12/30 15:13:49;;;;;;;5.15;1.25;;;8.80;87.50;;;;;;5069821;28;20025;-61
2022/12/30 15:16:15;;;;;;;5.28;1.23;;;8.80;87.80;;;;;;5069886;28;20020;-62
2022/12/30 15:18:49;;;;;;;3.17;2.08;;;8.80;88.10;;;;;;5069628;28;20021;-61
2022/12/30 15:21:17;;;;;;;5.35;1.95;;;8.80;88.10;;;;;;5068382;28;20054;-62
2022/12/30 15:24:01;;;;;;;7.00;1.73;;;8.80;88.40;;;;;;5069655;28;20070;-61
2022/12/30 15:26:34;;;;;;;4.15;1.52;;;9.00;87.60;;;;;;5075712;28;20037;-54
2022/12/30 15:29:16;;;;;;;3.67;0.98;;;9.10;87.70;;;;;;5075503;28;20020;-56
2022/12/30 15:31:51;;;;;;;1.42;0.70;;;9.10;87.40;;;;;;5071122;28;20124;-53
2022/12/30 15:34:23;;;;;;;1.88;0.60;;;9.20;87.00;;;;;;5069935;28;20025;-56
2022/12/30 15:36:49;;;;;;;2.13;1.02;;;9.20;87.00;;;;;;5070004;28;20035;-57
2022/12/30 15:39:19;;;;;;;4.43;1.10;;;9.20;87.10;;;;;;5070171;28;20021;-56
2022/12/30 15:41:46;;;;;;;5.70;1.60;;;9.20;87.20;;;;;;5069647;28;20017;-53
2022/12/30 15:44:21;;;;;;;4.93;0.90;;;9.20;87.20;;;;;;5069321;28;20051;-55
2022/12/30 15:47:00;;;;;;;1.85;0.57;;;9.30;87.00;;;;;;5069520;28;20048;-54
2022/12/30 15:49:29;;;;;;;5.93;1.33;;;9.30;87.00;;;;;;5069017;28;20025;-55
2022/12/30 15:52:08;;;;;;;2.80;1.92;;;9.30;87.20;;;;;;5069190;28;20025;-54
2022/12/30 15:54:45;;;;;;;1.42;0.82;;;9.30;87.50;;;;;;5067880;28;20379;-54
2022/12/30 15:57:37;;;;;;;4.40;0.98;;;9.20;87.90;;;;;;5067636;28;20098;-51
2022/12/30 16:00:24;;;;;;;1.15;0.70;;;9.10;88.60;;;;;;5069049;28;20116;-55
2022/12/30 16:02:55;;;;;;;2.15;0.50;;;9.10;88.90;;;;;;5068736;28;20033;-52
2022/12/30 16:05:31;;;;;;;2.15;0.90;;;9.20;89.30;;;;;;5066962;28;20025;-55
2022/12/30 16:08:14;;;;;;;5.90;1.75;;;9.20;89.40;;;;;;5068769;28;20071;-52
2022/12/30 16:10:41;;;;;;;4.10;1.95;;;9.10;89.80;;;;;;5068921;28;20043;-54
2022/12/30 16:13:35;;;;;;;11.40;1.52;;;9.10;90.20;;;;;;5064406;28;20099;-58
2022/12/30 16:16:04;;;;;;;3.83;1.00;;;9.00;90.40;;;;;;5055658;28;20507;-55
2022/12/30 16:18:31;;;;;;;1.35;0.82;;;9.00;90.70;;;;;;5055249;28;20071;-50
2022/12/30 16:21:04;;;;;;;5.10;1.77;;;9.00;90.90;;;;;;5055203;28;20033;-53
2022/12/30 16:23:43;;;;;;;10.88;1.35;;;9.00;91.10;;;;;;5055763;28;20366;-51
2022/12/30 16:26:27;;;;;;;2.30;1.00;;;9.00;91.40;;;;;;5055437;28;20060;-56
2022/12/30 16:29:07;;;;;;;3.58;0.80;;;9.00;91.60;;;;;;5055046;28;20440;-54
2022/12/30 16:31:33;;;;;;;2.67;1.55;;;8.90;92.20;;;;;;5055381;28;20108;-56
2022/12/30 16:33:58;;;;;;;4.60;2.22;;;8.80;92.40;;;;;;5055102;28;20425;-54
2022/12/30 16:36:32;;;;;;;3.30;1.55;;;8.90;92.40;;;;;;5054759;28;20029;-55
2022/12/30 16:38:58;;;;;;;6.60;1.35;;;8.90;92.70;;;;;;5054878;28;20078;-53
2022/12/30 16:41:25;;;;;;;2.05;1.25;;;8.80;92.90;;;;;;5053614;28;20033;-53
2022/12/30 16:43:54;;;;;;;1.42;1.00;;;8.80;93.00;;;;;;5054633;28;20021;-55
2022/12/30 16:46:22;;;;;;;0.93;0.77;;;8.90;92.90;;;;;;5055189;28;20473;-54
2022/12/30 16:48:49;;;;;;;4.13;1.27;;;8.80;92.90;;;;;;5053655;28;20060;-53
2022/12/30 16:51:35;;;;;;;3.47;1.88;;;8.90;92.80;;;;;;5054877;28;20100;-53
2022/12/30 16:54:04;;;;;;;2.65;1.80;;;8.90;92.80;;;;;;5054712;28;20024;-52
2022/12/30 16:56:30;;;;;;;4.43;1.13;;;8.80;92.90;;;;;;5054803;28;20029;-56
2022/12/30 16:58:56;;;;;;;1.20;1.10;;;8.90;93.00;;;;;;5054772;28;20021;-55
2022/12/30 17:01:27;;;;;;;3.25;1.80;;;9.00;93.00;;;;;;5054335;28;20045;-53
2022/12/30 17:03:52;;;;;;;2.05;1.25;;;9.00;93.10;;;;;;5054776;28;20091;-55
2022/12/30 17:06:18;;;;;;;3.33;1.85;;;9.00;93.30;;;;;;5054418;28;20028;-56
2022/12/30 17:08:44;;;;;;;1.95;1.15;;;9.00;93.20;;;;;;5054171;28;20083;-55
2022/12/30 17:11:16;;;;;;;1.23;1.13;;;9.00;93.30;;;;;;5054325;28;20029;-56
2022/12/30 17:13:45;;;;;;;1.73;1.38;;;9.00;93.40;;;;;;5054484;28;20031;-57
2022/12/30 17:16:32;;;;;;;2.70;1.90;;;9.00;93.60;;;;;;5054344;28;20104;-54
2022/12/30 17:18:59;;;;;;;3.13;2.42;;;9.00;93.70;;;;;;5054271;28;20044;-57
2022/12/30 17:21:36;;;;;;;2.50;1.48;;;9.00;93.80;;;;;;5054512;28;20104;-56
2022/12/30 17:24:02;;;;;;;1.73;1.17;;;9.10;93.70;;;;;;5054252;28;20029;-55
2022/12/30 17:26:28;;;;;;;2.13;1.15;;;9.10;93.70;;;;;;5051961;28;20449;-55
2022/12/30 17:28:54;;;;;;;1.95;0.90;;;9.20;93.60;;;;;;5054450;28;20021;-52
2022/12/30 17:31:28;;;;;;;2.13;1.33;;;9.20;93.60;;;;;;5053898;28;20470;-57
2022/12/30 17:33:55;;;;;;;2.55;1.73;;;9.10;93.70;;;;;;5053975;28;20418;-56
2022/12/30 17:36:24;;;;;;;2.80;1.90;;;9.20;93.70;;;;;;5054160;28;20082;-56
2022/12/30 17:38:50;;;;;;;5.38;1.40;;;9.20;93.60;;;;;;5054207;28;20025;-52
2022/12/30 17:41:20;;;;;;;1.20;0.90;;;9.30;93.40;;;;;;5053155;28;20033;-52
2022/12/30 17:43:46;;;;;;;1.40;0.93;;;9.30;93.50;;;;;;5054643;28;20099;-51
2022/12/30 17:46:13;;;;;;;2.70;1.20;;;9.40;93.10;;;;;;5054041;28;20108;-55
2022/12/30 17:48:40;;;;;;;2.15;1.17;;;9.50;92.90;;;;;;5053764;28;20021;-55
2022/12/30 17:51:14;;;;;;;2.63;1.20;;;9.50;92.70;;;;;;5053474;28;20086;-53
2022/12/30 17:53:40;;;;;;;1.73;1.30;;;9.60;92.50;;;;;;5053683;28;20374;-54
2022/12/30 17:56:06;;;;;;;1.63;1.20;;;9.60;92.50;;;;;;5053941;28;20031;-54
2022/12/30 17:58:32;;;;;;;4.97;1.38;;;9.70;92.40;;;;;;5052380;28;20031;-55
2022/12/30 18:00:58;;;;;;;4.72;2.03;;;9.70;92.40;;;;;;5053242;28;20017;-54
2022/12/30 18:03:23;;;;;;;2.58;1.73;;;9.80;92.30;;;;;;5053022;28;20021;-54
2022/12/30 18:05:54;;;;;;;2.92;1.83;;;9.70;92.10;;;;;;5054258;28;20416;-55
2022/12/30 18:08:22;;;;;;;;;;;9.70;92.30;;;;;;5054551;28;20025;-56
2022/12/30 18:11:04;;;;;;;2.00;0.93;;;9.80;92.50;;;;;;5053946;28;19936;-54
2022/12/30 18:13:32;;;;;;;1.63;1.10;;;9.80;92.30;;;;;;5054116;28;20028;-55
2022/12/30 18:15:57;;;;;;;2.13;1.58;;;9.80;92.20;;;;;;5053647;28;20108;-55
2022/12/30 18:18:23;;;;;;;3.72;1.98;;;9.90;92.20;;;;;;5053211;28;20049;-53
2022/12/30 18:20:49;;;;;;;2.80;1.30;;;9.90;92.40;;;;;;5053371;28;20078;-54
2022/12/30 18:23:14;;;;;;;5.75;2.03;;;10.00;92.60;;;;;;5053376;28;20029;-50
2022/12/30 18:25:42;;;;;;;2.47;1.55;;;10.00;92.70;;;;;;5053142;28;20415;-56
2022/12/30 18:28:09;;;;;;;1.65;1.13;;;10.00;92.90;;;;;;5051546;28;20028;-54
2022/12/30 18:30:34;;;;;;;3.85;1.35;;;10.00;93.00;;;;;;5052973;28;20028;-54
2022/12/30 18:33:00;;;;;;;1.30;1.17;;;10.10;92.90;;;;;;5053226;28;20029;-51
2022/12/30 18:35:26;;;;;;;3.50;1.02;;;10.10;92.80;;;;;;5053179;28;20029;-52
2022/12/30 18:37:51;;;;;;;5.70;2.50;;;10.10;92.80;;;;;;5052541;28;20477;-55
2022/12/30 18:40:17;;;;;;;3.40;2.10;;;10.20;92.60;;;;;;5052730;28;20100;-55
2022/12/30 18:42:43;;;;;;;2.80;1.40;;;10.20;92.70;;;;;;5052741;28;20114;-53
2022/12/30 18:45:09;;;;;;;2.22;1.30;;;10.20;92.40;;;;;;5051519;28;20466;-55
2022/12/30 18:47:35;;;;;;;2.00;1.38;;;10.30;92.40;;;;;;5052149;28;20057;-55
2022/12/30 18:50:01;;;;;;;2.97;1.55;;;10.30;92.40;;;;;;5052820;28;20021;-53
2022/12/30 18:52:27;;;;;;;5.40;2.80;;;10.40;92.60;;;;;;5052955;28;20124;-53
2022/12/30 18:54:53;;;;;;;1.58;1.48;;;10.30;92.50;;;;;;5052588;28;20100;-55
2022/12/30 18:57:18;;;;;;;2.72;1.33;;;10.50;92.70;;;;;;5053506;28;20499;-52
2022/12/30 18:59:44;;;;;;;4.57;2.78;;;10.50;92.60;;;;;;5052696;28;20106;-53
2022/12/30 19:02:10;;;;;;;4.95;2.42;;;10.50;92.50;;;;;;5052369;28;20095;-50
2022/12/30 19:04:36;;;;;;;5.07;2.42;;;10.50;92.50;;;;;;5052839;28;20353;-53
2022/12/30 19:07:02;;;;;;;2.47;1.85;;;10.50;92.70;;;;;;5051393;28;20419;-51
2022/12/30 19:09:28;;;;;;;3.63;2.22;;;10.60;92.20;;;;;;5052610;28;20017;-57
2022/12/30 19:11:53;;;;;;;2.63;1.85;;;10.60;92.20;;;;;;5052824;28;20033;-55
2022/12/30 19:14:20;;;;;;;1.77;1.30;;;10.60;92.20;;;;;;5053117;28;20057;-55
2022/12/30 19:16:48;;;;;;;1.83;1.40;;;10.70;91.80;;;;;;5052466;28;20033;-54
2022/12/30 19:19:15;;;;;;;4.47;2.75;;;10.80;91.80;;;;;;5052586;28;20385;-54
2022/12/30 19:21:42;;;;;;;3.92;2.58;;;10.80;91.50;;;;;;5052446;28;20034;-51
2022/12/30 19:24:13;;;;;;;4.15;2.55;;;10.80;91.60;;;;;;5034574;28;20484;-54
2022/12/30 19:26:39;;;;;;;3.45;1.67;;;10.80;91.40;;;;;;5052633;28;20021;-52
2022/12/30 19:29:05;;;;;;;3.55;3.03;;;10.80;91.40;;;;;;5052690;28;20025;-53
2022/12/30 19:31:35;;;;;;;3.10;2.38;;;10.90;91.40;;;;;;5052233;28;20384;-54
2022/12/30 19:34:02;;;;;;;;;;;11.00;91.10;;;;;;5052677;28;20036;-53
2022/12/30 19:36:32;;;;;;;2.80;2.35;;;11.10;91.00;;;;;;5052484;28;19905;-54
2022/12/30 19:38:57;;;;;;;6.87;2.10;;;11.10;90.90;;;;;;5052399;28;20057;-54
2022/12/30 19:41:25;;;;;;;2.13;1.45;;;11.30;90.90;;;;;;5052629;28;20783;-56
2022/12/30 19:43:52;;;;;;;1.38;1.25;;;11.30;90.70;;;;;;5052433;28;20432;-52
2022/12/30 19:46:18;;;;;;;4.78;2.63;;;11.30;90.70;;;;;;5052359;28;20345;-53
2022/12/30 19:48:44;;;;;;;8.07;3.63;;;11.40;90.50;;;;;;5054357;28;20356;-53
2022/12/30 19:51:11;;;;;;;4.18;1.92;;;11.40;90.50;;;;;;5055975;28;20022;-52
2022/12/30 19:53:38;;;;;;;2.90;1.65;;;11.40;90.50;;;;;;5055913;28;20021;-52
2022/12/30 19:56:04;;;;;;;1.98;1.42;;;11.50;90.50;;;;;;5056196;28;20025;-54
2022/12/30 19:58:29;;;;;;;2.20;1.80;;;11.50;90.50;;;;;;5054356;28;20060;-53
2022/12/30 20:00:55;;;;;;;11.38;8.20;;;11.50;90.60;;;;;;5056532;28;20025;-53
2022/12/30 20:03:20;;;;;;;3.55;2.13;;;11.50;90.60;;;;;;5055695;28;20040;-53
2022/12/30 20:05:46;;;;;;;1.92;1.50;;;11.50;90.60;;;;;;5054659;28;20087;-51
2022/12/30 20:08:12;;;;;;;2.33;1.75;;;11.50;90.50;;;;;;5056923;28;20025;-55
2022/12/30 20:10:37;;;;;;;2.55;1.60;;;11.40;90.90;;;;;;5056062;28;20487;-53
2022/12/30 20:13:03;;;;;;;1.92;1.70;;;11.40;90.80;;;;;;5055660;28;20025;-55
2022/12/30 20:15:34;;;;;;;1.90;1.20;;;11.50;91.00;;;;;;5055618;28;20055;-54
2022/12/30 20:17:59;;;;;;;3.42;2.00;;;11.60;90.80;;;;;;5055769;28;20025;-53
2022/12/30 20:20:25;;;;;;;2.13;1.60;;;11.80;90.50;;;;;;5055598;28;20500;-56
2022/12/30 20:22:52;;;;;;;4.25;1.88;;;11.70;90.50;;;;;;5055391;28;20370;-53
2022/12/30 20:25:18;;;;;;;3.53;1.67;;;11.80;90.40;;;;;;5055277;28;20017;-54
2022/12/30 20:27:44;;;;;;;2.75;1.20;;;11.80;90.40;;;;;;5055463;28;20021;-53
2022/12/30 20:30:10;;;;;;;2.13;1.70;;;11.90;90.30;;;;;;5056680;28;20032;-54
2022/12/30 20:32:36;;;;;;;2.65;1.90;;;12.00;90.40;;;;;;5055915;28;20404;-55
2022/12/30 20:35:02;;;;;;;2.30;1.55;;;12.10;90.00;;;;;;5055385;28;20040;-55
2022/12/30 20:37:27;;;;;;;3.10;1.80;;;12.10;90.00;;;;;;5055162;28;20096;-53
2022/12/30 20:39:53;;;;;;;2.60;1.58;;;12.10;90.10;;;;;;5055101;28;20025;-54
2022/12/30 20:42:19;;;;;;;2.30;1.92;;;12.20;89.90;;;;;;5054882;28;20116;-55
2022/12/30 20:44:46;;;;;;;2.80;1.70;;;12.20;90.00;;;;;;5055111;28;20078;-52
2022/12/30 20:47:12;;;;;;;1.70;1.55;;;12.30;90.00;;;;;;5055058;28;20469;-56
2022/12/30 20:49:37;;;;;;;3.97;1.52;;;12.40;89.70;;;;;;5055108;28;20021;-54
2022/12/30 20:52:03;;;;;;;1.45;1.08;;;12.50;89.60;;;;;;5055150;28;20496;-55
2022/12/30 20:54:30;;;;;;;1.95;1.40;;;12.60;89.60;;;;;;5055370;28;20057;-56
2022/12/30 20:56:56;;;;;;;1.00;0.98;;;12.60;89.50;;;;;;5053844;28;20476;-56
2022/12/30 20:59:22;;;;;;;1.30;1.13;;;12.70;89.50;;;;;;5054915;28;20504;-55
